createdAt,value
2022-12-31T00:01:06.562Z,23.36
2022-12-31T00:03:11.109Z,23.38
2022-12-31T00:05:15.905Z,23.4
2022-12-31T00:07:20.240Z,23.42
2022-12-31T00:09:24.619Z,23.41
2022-12-31T00:11:29.069Z,23.42
2022-12-31T00:13:33.455Z,23.36
2022-12-31T00:15:37.853Z,23.25
2022-12-31T00:17:42.237Z,23.2
2022-12-31T00:19:46.557Z,23.17
2022-12-31T00:21:50.922Z,23.17
2022-12-31T00:23:55.271Z,23.25
2022-12-31T00:25:59.760Z,23.27
2022-12-31T00:28:04.133Z,23.28
2022-12-31T00:30:08.489Z,23.27
2022-12-31T00:32:12.853Z,23.25
2022-12-31T00:34:17.189Z,23.24
2022-12-31T00:36:21.594Z,23.24
2022-12-31T00:38:26.059Z,23.21
2022-12-31T00:40:30.399Z,23.19
2022-12-31T00:42:34.726Z,23.18
2022-12-31T00:44:39.084Z,23.17
2022-12-31T00:48:45.080Z,23.15
2022-12-31T00:50:49.545Z,23.13
2022-12-31T00:52:53.882Z,23.11
2022-12-31T00:54:58.293Z,23.1
2022-12-31T00:57:02.657Z,23.09
2022-12-31T00:59:06.986Z,23.08
2022-12-31T01:01:11.528Z,23.07
2022-12-31T01:03:16.391Z,23.06
2022-12-31T01:05:20.911Z,23.06
2022-12-31T01:07:25.281Z,23.04
2022-12-31T01:09:29.759Z,23.03
2022-12-31T01:11:34.107Z,23.04
2022-12-31T01:13:38.614Z,23.03
2022-12-31T01:15:43.030Z,23.03
2022-12-31T01:17:47.502Z,23.02
2022-12-31T01:19:51.842Z,23.02
2022-12-31T01:21:56.173Z,23.01
2022-12-31T01:24:00.626Z,23
2022-12-31T01:26:05.009Z,22.97
2022-12-31T01:28:09.349Z,22.98
2022-12-31T01:30:13.680Z,22.98
2022-12-31T01:32:18.034Z,22.97
2022-12-31T01:34:22.450Z,22.97
2022-12-31T01:36:26.867Z,22.96
2022-12-31T01:38:31.266Z,22.96
2022-12-31T01:40:35.604Z,22.96
2022-12-31T01:42:39.980Z,22.98
2022-12-31T01:44:44.325Z,22.96
2022-12-31T01:46:48.678Z,22.96
2022-12-31T01:48:53.075Z,22.96
2022-12-31T01:50:57.424Z,22.95
2022-12-31T01:53:01.740Z,22.97
2022-12-31T01:55:06.152Z,22.96
2022-12-31T01:57:10.486Z,22.94
2022-12-31T01:59:14.840Z,22.94
2022-12-31T02:01:19.479Z,22.95
2022-12-31T02:03:24.460Z,22.97
2022-12-31T02:05:29.008Z,22.98
2022-12-31T02:07:33.394Z,22.99
2022-12-31T02:09:37.738Z,22.99
2022-12-31T02:11:42.094Z,23.01
2022-12-31T02:13:46.474Z,23.02
2022-12-31T02:15:54.910Z,23
2022-12-31T02:17:59.508Z,22.99
2022-12-31T02:20:03.884Z,23
2022-12-31T02:22:08.219Z,23.02
2022-12-31T02:24:13.119Z,23.03
2022-12-31T02:26:17.461Z,23
2022-12-31T02:28:21.776Z,23.01
2022-12-31T02:30:26.121Z,23
2022-12-31T02:32:30.592Z,23.01
2022-12-31T02:34:34.948Z,23.02
2022-12-31T02:36:39.295Z,23.02
2022-12-31T02:38:43.612Z,23.03
2022-12-31T02:40:47.956Z,23.03
2022-12-31T02:42:55.449Z,23.03
2022-12-31T02:45:00.077Z,23.02
2022-12-31T02:47:04.504Z,23.03
2022-12-31T02:49:08.837Z,23.03
2022-12-31T02:51:13.166Z,23.01
2022-12-31T02:53:17.541Z,23.02
2022-12-31T02:55:21.873Z,23.02
2022-12-31T02:57:26.202Z,23.02
2022-12-31T02:59:30.534Z,23.02
2022-12-31T03:01:34.996Z,23.02
2022-12-31T03:03:39.966Z,23.01
2022-12-31T03:05:44.613Z,23.02
2022-12-31T03:07:48.946Z,23.02
2022-12-31T03:09:53.362Z,23.01
2022-12-31T03:11:57.692Z,23
2022-12-31T03:14:02.017Z,23.01
2022-12-31T03:16:06.407Z,23.02
2022-12-31T03:18:10.836Z,23.01
2022-12-31T03:20:15.166Z,23.01
2022-12-31T03:22:19.510Z,23.01
2022-12-31T03:24:23.906Z,23.01
2022-12-31T03:26:28.277Z,23.01
2022-12-31T03:28:32.590Z,22.99
2022-12-31T03:30:36.987Z,23
2022-12-31T03:32:41.324Z,23.01
2022-12-31T03:34:45.664Z,22.98
2022-12-31T03:36:50.002Z,22.97
2022-12-31T03:38:54.337Z,22.95
2022-12-31T03:40:58.680Z,22.96
2022-12-31T03:43:03.013Z,22.96
2022-12-31T03:45:07.332Z,22.96
2022-12-31T03:47:11.710Z,22.96
2022-12-31T03:49:16.013Z,22.96
2022-12-31T03:51:20.326Z,22.94
2022-12-31T03:53:24.714Z,22.94
2022-12-31T03:55:29.147Z,22.92
2022-12-31T03:57:33.576Z,22.92
2022-12-31T03:59:38.024Z,22.91
2022-12-31T04:01:42.493Z,22.92
2022-12-31T04:03:47.212Z,22.92
2022-12-31T04:05:51.550Z,22.91
2022-12-31T04:07:55.933Z,22.92
2022-12-31T04:10:00.286Z,22.91
2022-12-31T04:12:04.642Z,22.92
2022-12-31T04:14:08.952Z,22.9
2022-12-31T04:16:13.369Z,22.91
2022-12-31T04:18:17.861Z,22.9
2022-12-31T04:20:22.194Z,22.89
2022-12-31T04:22:26.687Z,22.89
2022-12-31T04:24:31.056Z,22.89
2022-12-31T04:26:35.412Z,22.89
2022-12-31T04:29:25.651Z,22.84
2022-12-31T04:31:30.055Z,22.86
2022-12-31T04:33:34.527Z,22.87
2022-12-31T04:35:38.999Z,22.87
2022-12-31T04:37:43.335Z,22.87
2022-12-31T04:39:47.644Z,22.85
2022-12-31T04:41:51.990Z,22.86
2022-12-31T04:43:56.301Z,22.87
2022-12-31T04:46:00.655Z,22.87
2022-12-31T04:48:05.224Z,22.87
2022-12-31T04:50:09.542Z,22.89
2022-12-31T04:52:13.877Z,22.88
2022-12-31T04:54:18.246Z,22.87
2022-12-31T04:56:22.556Z,22.84
2022-12-31T04:58:26.921Z,22.84
2022-12-31T05:00:31.252Z,22.82
2022-12-31T05:02:35.741Z,22.81
2022-12-31T05:04:40.961Z,22.8
2022-12-31T05:06:45.322Z,22.8
2022-12-31T05:08:49.695Z,22.8
2022-12-31T05:10:54.082Z,22.79
2022-12-31T05:12:58.401Z,22.79
2022-12-31T05:15:02.772Z,22.79
2022-12-31T05:17:07.123Z,22.79
2022-12-31T05:19:11.438Z,22.78
2022-12-31T05:21:15.788Z,22.78
2022-12-31T05:23:20.111Z,22.77
2022-12-31T05:25:24.527Z,22.76
2022-12-31T05:27:28.905Z,22.74
2022-12-31T05:29:33.275Z,22.74
2022-12-31T05:31:37.632Z,22.74
2022-12-31T05:33:41.977Z,22.73
2022-12-31T05:35:46.308Z,22.7
2022-12-31T05:37:50.657Z,22.71
2022-12-31T05:39:55.014Z,22.69
2022-12-31T05:41:59.391Z,22.7
2022-12-31T05:44:03.736Z,22.69
2022-12-31T05:46:08.125Z,22.69
2022-12-31T05:48:12.747Z,22.68
2022-12-31T05:50:17.111Z,22.7
2022-12-31T05:52:21.440Z,22.7
2022-12-31T05:54:25.797Z,22.68
2022-12-31T05:56:30.178Z,22.67
2022-12-31T05:58:34.586Z,22.67
2022-12-31T06:00:38.875Z,22.66
2022-12-31T06:02:43.326Z,22.67
2022-12-31T06:04:47.919Z,22.68
2022-12-31T06:06:52.294Z,22.65
2022-12-31T06:08:56.643Z,22.66
2022-12-31T06:11:00.955Z,22.66
2022-12-31T06:13:05.295Z,22.65
2022-12-31T06:15:09.712Z,22.63
2022-12-31T06:17:14.051Z,22.63
2022-12-31T06:19:18.573Z,22.63
2022-12-31T06:21:22.909Z,22.64
2022-12-31T06:23:27.312Z,22.65
2022-12-31T06:25:31.659Z,22.64
2022-12-31T06:27:36.001Z,22.65
2022-12-31T06:29:40.420Z,22.64
2022-12-31T06:31:44.752Z,22.64
2022-12-31T06:33:49.149Z,22.63
2022-12-31T06:35:53.506Z,22.63
2022-12-31T06:37:57.834Z,22.64
2022-12-31T06:40:02.250Z,22.64
2022-12-31T06:42:06.668Z,22.64
2022-12-31T06:44:11.016Z,22.65
2022-12-31T06:46:15.360Z,22.67
2022-12-31T06:48:19.983Z,22.65
2022-12-31T06:50:24.428Z,22.67
2022-12-31T06:52:28.885Z,22.65
2022-12-31T06:54:33.383Z,22.64
2022-12-31T06:56:37.689Z,22.64
2022-12-31T06:58:42.005Z,22.66
2022-12-31T07:00:46.373Z,22.65
2022-12-31T07:02:50.773Z,22.64
2022-12-31T07:04:55.367Z,22.65
2022-12-31T07:06:59.808Z,22.65
2022-12-31T07:09:04.197Z,22.65
2022-12-31T07:11:08.649Z,22.66
2022-12-31T07:13:13.052Z,22.65
2022-12-31T07:15:17.386Z,22.63
2022-12-31T07:17:21.749Z,22.64
2022-12-31T07:19:26.072Z,22.64
2022-12-31T07:21:30.426Z,22.64
2022-12-31T07:23:34.773Z,22.63
2022-12-31T07:25:39.121Z,22.62
2022-12-31T07:27:43.486Z,22.61
2022-12-31T07:29:47.896Z,22.62
2022-12-31T07:31:52.357Z,22.62
2022-12-31T07:33:56.743Z,22.62
2022-12-31T07:36:01.058Z,22.62
2022-12-31T07:38:05.409Z,22.61
2022-12-31T07:40:09.801Z,22.61
2022-12-31T07:42:14.210Z,22.62
2022-12-31T07:44:18.593Z,22.62
2022-12-31T07:46:22.993Z,22.62
2022-12-31T07:48:27.510Z,22.62
2022-12-31T07:50:31.898Z,22.62
2022-12-31T07:52:36.219Z,22.62
2022-12-31T07:54:40.518Z,22.62
2022-12-31T07:56:44.869Z,22.62
2022-12-31T07:58:49.411Z,22.63
2022-12-31T08:00:53.846Z,22.63
2022-12-31T08:02:58.525Z,22.65
2022-12-31T08:05:03.105Z,22.65
2022-12-31T08:07:07.521Z,22.65
2022-12-31T08:09:11.993Z,22.66
2022-12-31T08:11:16.384Z,22.66
2022-12-31T08:13:20.789Z,22.66
2022-12-31T08:15:30.110Z,22.67
2022-12-31T08:17:34.809Z,22.68
2022-12-31T08:19:39.222Z,22.68
2022-12-31T08:21:43.663Z,22.69
2022-12-31T08:23:48.139Z,22.71
2022-12-31T08:25:52.602Z,22.72
2022-12-31T08:27:56.968Z,22.73
2022-12-31T08:30:01.343Z,22.74
2022-12-31T08:32:05.853Z,22.74
2022-12-31T08:34:10.248Z,22.74
2022-12-31T08:36:14.673Z,22.74
2022-12-31T08:38:19.076Z,22.73
2022-12-31T08:40:23.584Z,22.73
2022-12-31T08:42:28.347Z,22.74
2022-12-31T08:44:32.781Z,22.75
2022-12-31T08:46:37.279Z,22.75
2022-12-31T08:48:41.701Z,22.77
2022-12-31T08:50:46.165Z,22.76
2022-12-31T08:52:50.599Z,22.77
2022-12-31T08:54:54.994Z,22.78
2022-12-31T08:56:59.374Z,22.81
2022-12-31T08:59:03.784Z,22.83
2022-12-31T09:01:08.330Z,22.85
2022-12-31T09:03:13.248Z,22.87
2022-12-31T09:05:17.727Z,22.91
2022-12-31T09:07:22.087Z,22.96
2022-12-31T09:09:26.509Z,23.02
2022-12-31T09:11:30.855Z,23.07
2022-12-31T09:13:35.189Z,23.12
2022-12-31T09:15:39.557Z,23.19
2022-12-31T09:17:43.935Z,23.24
2022-12-31T09:19:48.399Z,23.31
2022-12-31T09:21:52.808Z,23.35
2022-12-31T09:23:57.204Z,23.4
2022-12-31T09:26:08.292Z,23.43
2022-12-31T09:28:12.666Z,23.47
2022-12-31T09:30:17.075Z,23.49
2022-12-31T09:32:21.473Z,23.52
2022-12-31T09:34:25.870Z,23.54
2022-12-31T09:36:30.347Z,23.58
2022-12-31T09:38:34.876Z,23.61
2022-12-31T09:40:39.270Z,23.65
2022-12-31T09:42:43.692Z,23.66
2022-12-31T09:44:48.089Z,23.72
2022-12-31T09:46:52.458Z,23.75
2022-12-31T09:48:56.914Z,23.78
2022-12-31T09:51:01.252Z,23.81
2022-12-31T09:53:05.616Z,23.84
2022-12-31T09:55:09.984Z,23.86
2022-12-31T09:57:14.281Z,23.88
2022-12-31T09:59:18.745Z,23.91
2022-12-31T10:01:23.195Z,23.95
2022-12-31T10:03:28.126Z,23.99
2022-12-31T10:05:32.711Z,24.02
2022-12-31T10:07:37.093Z,24.05
2022-12-31T10:09:41.489Z,24.08
2022-12-31T10:11:45.838Z,24.1
2022-12-31T10:13:50.326Z,24.12
2022-12-31T10:15:54.764Z,24.15
2022-12-31T10:17:59.121Z,24.16
2022-12-31T10:20:03.599Z,24.16
2022-12-31T10:22:07.958Z,24.18
2022-12-31T10:24:12.335Z,24.21
2022-12-31T10:26:16.771Z,24.22
2022-12-31T10:28:21.124Z,24.24
2022-12-31T10:30:25.546Z,24.26
2022-12-31T10:32:31.598Z,24.28
2022-12-31T10:34:36.145Z,24.28
2022-12-31T10:36:40.489Z,24.31
2022-12-31T10:38:44.935Z,24.3
2022-12-31T10:40:49.345Z,24.31
2022-12-31T10:42:53.706Z,24.34
2022-12-31T10:44:58.133Z,24.38
2022-12-31T10:47:02.469Z,24.42
2022-12-31T10:49:06.821Z,24.43
2022-12-31T10:51:11.217Z,24.47
2022-12-31T10:53:15.562Z,24.49
2022-12-31T10:55:20.147Z,24.5
2022-12-31T10:57:24.480Z,24.53
2022-12-31T10:59:28.829Z,24.56
2022-12-31T11:01:33.348Z,24.57
2022-12-31T11:03:38.296Z,24.59
2022-12-31T11:05:42.985Z,24.61
2022-12-31T11:07:47.663Z,24.62
2022-12-31T11:09:51.970Z,24.61
2022-12-31T11:11:56.346Z,24.63
2022-12-31T11:14:00.741Z,24.63
2022-12-31T11:16:05.160Z,24.64
2022-12-31T11:18:09.692Z,24.64
2022-12-31T11:20:14.000Z,24.64
2022-12-31T11:22:18.514Z,24.64
2022-12-31T11:24:22.861Z,24.66
2022-12-31T11:26:27.280Z,24.67
2022-12-31T11:28:31.659Z,24.69
2022-12-31T11:30:36.005Z,24.7
2022-12-31T11:32:40.602Z,24.71
2022-12-31T11:34:44.921Z,24.75
2022-12-31T11:36:49.255Z,24.77
2022-12-31T11:38:53.630Z,24.8
2022-12-31T11:40:57.926Z,24.78
2022-12-31T11:43:02.289Z,24.78
2022-12-31T11:45:06.639Z,24.77
2022-12-31T11:47:10.971Z,24.76
2022-12-31T11:49:15.382Z,24.79
2022-12-31T11:51:19.761Z,24.81
2022-12-31T11:53:24.166Z,24.83
2022-12-31T11:55:28.555Z,24.86
2022-12-31T11:57:32.920Z,24.86
2022-12-31T11:59:37.363Z,24.87
2022-12-31T12:01:41.767Z,24.86
2022-12-31T12:03:46.363Z,24.85
2022-12-31T12:05:50.904Z,24.83
2022-12-31T12:07:55.242Z,24.85
2022-12-31T12:09:59.689Z,24.83
2022-12-31T12:12:04.112Z,24.82
2022-12-31T12:14:08.479Z,24.8
2022-12-31T12:16:12.870Z,24.79
2022-12-31T12:18:17.259Z,24.78
2022-12-31T12:20:21.565Z,24.78
2022-12-31T12:22:25.866Z,24.81
2022-12-31T12:24:30.217Z,24.82
2022-12-31T12:26:34.672Z,24.82
2022-12-31T12:28:43.941Z,24.81
2022-12-31T12:30:48.448Z,24.8
2022-12-31T12:32:52.851Z,24.79
2022-12-31T12:34:57.190Z,24.76
2022-12-31T12:37:01.579Z,24.74
2022-12-31T12:39:06.059Z,24.73
2022-12-31T12:41:10.450Z,24.73
2022-12-31T12:43:14.820Z,24.73
2022-12-31T12:45:19.189Z,24.71
2022-12-31T12:47:23.595Z,24.7
2022-12-31T12:49:28.086Z,24.69
2022-12-31T12:51:32.523Z,24.68
2022-12-31T12:53:36.878Z,24.67
2022-12-31T12:55:41.191Z,24.65
2022-12-31T12:57:45.581Z,24.63
2022-12-31T12:59:50.053Z,24.62
2022-12-31T13:01:54.590Z,24.59
2022-12-31T13:04:32.837Z,24.53
2022-12-31T13:06:38.808Z,24.5
2022-12-31T13:08:43.201Z,24.48
2022-12-31T13:10:47.591Z,24.44
2022-12-31T13:15:28.523Z,24.42
2022-12-31T13:17:32.888Z,24.4
2022-12-31T13:19:37.257Z,24.38
2022-12-31T13:21:41.627Z,24.38
2022-12-31T13:23:45.989Z,24.35
2022-12-31T13:25:50.371Z,24.36
2022-12-31T13:27:54.685Z,24.34
2022-12-31T13:29:58.982Z,24.34
2022-12-31T13:32:03.445Z,24.34
2022-12-31T13:34:08.225Z,24.36
2022-12-31T13:36:12.580Z,24.34
2022-12-31T13:38:16.950Z,24.33
2022-12-31T13:40:21.363Z,24.31
2022-12-31T13:42:25.775Z,24.32
2022-12-31T13:44:30.125Z,24.3
2022-12-31T13:46:34.481Z,24.28
2022-12-31T13:48:38.831Z,24.29
2022-12-31T13:50:43.212Z,24.3
2022-12-31T13:52:47.627Z,24.27
2022-12-31T13:54:51.996Z,24.29
2022-12-31T13:56:56.439Z,24.29
2022-12-31T13:59:00.901Z,24.3
2022-12-31T14:01:05.377Z,24.33
2022-12-31T14:03:10.237Z,24.33
2022-12-31T14:05:14.776Z,24.37
2022-12-31T14:07:19.106Z,24.38
2022-12-31T14:09:23.629Z,24.38
2022-12-31T14:11:27.989Z,24.39
2022-12-31T14:13:34.728Z,24.42
2022-12-31T14:15:39.280Z,24.45
2022-12-31T14:17:43.652Z,24.47
2022-12-31T14:19:48.021Z,24.51
2022-12-31T14:21:52.360Z,24.54
2022-12-31T14:23:56.794Z,24.58
2022-12-31T14:26:01.224Z,24.62
2022-12-31T14:28:05.719Z,24.64
2022-12-31T14:30:10.155Z,24.65
2022-12-31T14:32:14.552Z,24.68
2022-12-31T14:34:18.971Z,24.71
2022-12-31T14:36:23.395Z,24.74
2022-12-31T14:38:27.811Z,24.73
2022-12-31T14:40:32.238Z,24.73
2022-12-31T14:42:36.637Z,24.72
2022-12-31T14:44:41.181Z,24.72
2022-12-31T14:46:45.583Z,24.71
2022-12-31T14:48:50.029Z,24.72
2022-12-31T14:50:54.472Z,24.73
2022-12-31T14:52:58.848Z,24.73
2022-12-31T14:55:03.366Z,24.74
2022-12-31T14:57:07.795Z,24.76
2022-12-31T14:59:12.175Z,24.79
2022-12-31T15:01:16.643Z,24.81
2022-12-31T15:03:21.580Z,24.84
2022-12-31T15:05:26.299Z,24.89
2022-12-31T15:07:30.776Z,24.89
2022-12-31T15:09:35.165Z,24.91
2022-12-31T15:11:39.607Z,24.94
2022-12-31T15:13:43.998Z,24.96
2022-12-31T15:15:48.370Z,24.99
2022-12-31T15:17:52.822Z,24.99
2022-12-31T15:19:57.185Z,25
2022-12-31T15:22:01.638Z,25
2022-12-31T15:24:06.019Z,25.02
2022-12-31T15:26:10.365Z,25.06
2022-12-31T15:28:14.759Z,25.08
2022-12-31T15:30:19.072Z,25.09
2022-12-31T15:32:23.479Z,25.09
2022-12-31T15:34:28.016Z,25.11
2022-12-31T15:36:32.374Z,25.13
2022-12-31T15:38:36.802Z,25.16
2022-12-31T15:40:41.291Z,25.16
2022-12-31T15:42:49.617Z,25.15
2022-12-31T15:44:54.327Z,25.16
2022-12-31T15:46:58.828Z,25.17
2022-12-31T15:49:05.914Z,25.16
2022-12-31T15:51:18.830Z,25.13
2022-12-31T15:53:23.297Z,25.13
2022-12-31T15:55:27.683Z,25.13
2022-12-31T15:57:32.194Z,25.15
2022-12-31T15:59:36.722Z,25.16
2022-12-31T16:01:41.316Z,25.19
2022-12-31T16:03:46.155Z,25.21
2022-12-31T16:05:50.639Z,25.22
2022-12-31T16:07:55.031Z,25.24
2022-12-31T16:09:59.515Z,25.26
2022-12-31T16:12:04.033Z,25.26
2022-12-31T16:14:08.518Z,25.24
2022-12-31T16:16:12.945Z,25.25
2022-12-31T16:18:22.721Z,25.27
2022-12-31T16:20:27.494Z,25.29
2022-12-31T16:22:31.956Z,25.31
2022-12-31T16:24:44.481Z,25.33
2022-12-31T16:27:34.477Z,25.35
2022-12-31T16:29:38.874Z,25.38
2022-12-31T16:31:43.265Z,25.41
2022-12-31T16:33:47.706Z,25.43
2022-12-31T16:35:52.124Z,25.38
2022-12-31T16:37:56.544Z,25.29
2022-12-31T16:40:00.961Z,25.24
2022-12-31T16:42:05.394Z,25.21
2022-12-31T16:44:09.778Z,25.19
2022-12-31T16:46:14.359Z,25.17
2022-12-31T16:48:19.058Z,25.19
2022-12-31T16:50:23.513Z,25.2
2022-12-31T16:52:27.930Z,25.21
2022-12-31T16:54:32.509Z,25.24
2022-12-31T16:56:37.279Z,25.23
2022-12-31T16:58:41.766Z,25.26
2022-12-31T17:00:46.438Z,25.27
2022-12-31T17:02:50.942Z,25.28
2022-12-31T17:04:56.527Z,25.27
2022-12-31T17:07:01.099Z,25.28
2022-12-31T17:09:05.551Z,25.29
2022-12-31T17:11:10.063Z,25.27
2022-12-31T17:13:27.493Z,25.25
2022-12-31T17:15:34.094Z,25.22
2022-12-31T17:17:38.532Z,25.17
2022-12-31T17:19:42.896Z,25.16
2022-12-31T17:21:47.414Z,25.16
2022-12-31T17:23:51.988Z,25.14
2022-12-31T17:25:56.469Z,25.13
2022-12-31T17:28:00.943Z,25.12
2022-12-31T17:30:05.290Z,25.14
2022-12-31T17:32:09.757Z,25.12
2022-12-31T17:34:14.257Z,25.13
2022-12-31T17:36:18.775Z,25.15
2022-12-31T17:38:23.181Z,25.16
2022-12-31T17:40:50.236Z,25.15
2022-12-31T17:42:56.194Z,25.11
2022-12-31T17:45:00.812Z,25.15
2022-12-31T17:47:05.253Z,25.15
2022-12-31T17:49:09.664Z,25.14
2022-12-31T17:51:14.038Z,25.15
2022-12-31T17:53:26.899Z,25.16
2022-12-31T17:55:31.354Z,25.15
2022-12-31T17:57:35.860Z,25.14
2022-12-31T17:59:40.288Z,25.16
2022-12-31T18:01:44.943Z,25.15
2022-12-31T18:03:50.227Z,25.17
2022-12-31T18:05:54.706Z,25.18
2022-12-31T18:07:59.141Z,25.19
2022-12-31T18:10:03.652Z,25.2
2022-12-31T18:12:08.069Z,25.15
2022-12-31T18:14:12.521Z,25.16
2022-12-31T18:16:17.093Z,25.14
2022-12-31T18:18:25.123Z,25.16
2022-12-31T18:20:30.037Z,25.15
2022-12-31T18:22:34.402Z,25.15
2022-12-31T18:24:38.942Z,25.11
2022-12-31T18:26:43.338Z,25.1
2022-12-31T18:28:47.751Z,25.1
2022-12-31T18:30:52.219Z,25.1
2022-12-31T18:32:56.892Z,25.12
2022-12-31T18:35:01.351Z,25.13
2022-12-31T18:37:05.751Z,25.09
2022-12-31T18:39:10.209Z,25.08
2022-12-31T18:41:14.841Z,25.11
2022-12-31T18:43:19.254Z,25.12
2022-12-31T18:45:23.880Z,25.11
2022-12-31T18:47:32.712Z,25.14
2022-12-31T18:49:41.448Z,25.13
2022-12-31T18:51:45.904Z,25.13
2022-12-31T18:53:50.322Z,25.12
2022-12-31T18:55:54.826Z,25.1
2022-12-31T18:57:59.310Z,25.1
2022-12-31T19:00:03.771Z,25.12
2022-12-31T19:02:08.265Z,25.12
2022-12-31T19:04:12.959Z,25.14
2022-12-31T19:06:17.604Z,25.11
2022-12-31T19:08:22.025Z,25.07
2022-12-31T19:10:26.579Z,25.02
2022-12-31T19:12:30.997Z,24.97
2022-12-31T19:14:35.523Z,24.95
2022-12-31T19:16:40.112Z,24.91
2022-12-31T19:18:44.674Z,24.9
2022-12-31T19:20:49.075Z,24.87
2022-12-31T19:22:53.476Z,24.87
2022-12-31T19:24:57.899Z,24.86
2022-12-31T19:27:02.314Z,24.85
2022-12-31T19:29:06.721Z,24.83
2022-12-31T19:31:11.139Z,24.81
2022-12-31T19:33:15.727Z,24.79
2022-12-31T19:35:20.152Z,24.81
2022-12-31T19:37:24.571Z,24.83
2022-12-31T19:39:28.992Z,24.84
2022-12-31T19:41:33.419Z,24.82
2022-12-31T19:43:37.941Z,24.86
2022-12-31T19:45:42.414Z,24.91
2022-12-31T19:47:46.969Z,24.97
2022-12-31T19:49:51.420Z,25.03
2022-12-31T19:51:55.829Z,25.08
2022-12-31T19:54:00.363Z,25.14
2022-12-31T19:56:04.794Z,25.18
2022-12-31T19:58:09.265Z,25.22
2022-12-31T20:00:13.653Z,25.26
2022-12-31T20:02:18.133Z,25.31
2022-12-31T20:04:23.191Z,25.39
2022-12-31T20:06:27.634Z,25.44
2022-12-31T20:08:32.084Z,25.48
2022-12-31T20:10:36.603Z,25.51
2022-12-31T20:12:44.504Z,25.52
2022-12-31T20:14:49.336Z,25.53
2022-12-31T20:16:53.837Z,25.51
2022-12-31T20:18:58.305Z,25.5
2022-12-31T20:21:02.810Z,25.5
2022-12-31T20:23:07.319Z,25.51
2022-12-31T20:25:11.696Z,25.45
2022-12-31T20:27:18.527Z,25.42
2022-12-31T20:29:23.154Z,25.33
2022-12-31T20:31:27.562Z,25.35
2022-12-31T20:33:31.969Z,25.31
2022-12-31T20:35:36.393Z,25.29
2022-12-31T20:37:40.811Z,25.29
2022-12-31T20:39:45.200Z,25.27
2022-12-31T20:41:49.628Z,25.24
2022-12-31T20:43:54.213Z,25.23
2022-12-31T20:45:58.649Z,25.21
2022-12-31T20:48:03.090Z,25.19
2022-12-31T20:50:12.150Z,25.21
2022-12-31T20:52:16.850Z,25.25
2022-12-31T20:54:21.230Z,25.28
2022-12-31T20:56:25.645Z,25.28
2022-12-31T20:58:30.139Z,25.25
2022-12-31T21:00:34.608Z,25.18
2022-12-31T21:02:42.375Z,25.22
2022-12-31T21:05:09.256Z,25.22
2022-12-31T21:07:14.828Z,25.22
2022-12-31T21:09:19.207Z,25.2
2022-12-31T21:11:23.644Z,25.21
2022-12-31T21:13:28.031Z,25.19
2022-12-31T21:15:32.439Z,25.2
2022-12-31T21:17:37.034Z,25.21
2022-12-31T21:19:41.440Z,25.24
2022-12-31T21:21:45.909Z,25.27
2022-12-31T21:23:50.368Z,25.27
2022-12-31T21:25:54.799Z,25.28
2022-12-31T21:27:59.290Z,25.28
2022-12-31T21:30:20.022Z,25.29
2022-12-31T21:32:24.747Z,25.23
2022-12-31T21:34:29.255Z,25.15
2022-12-31T21:36:33.744Z,25.05
2022-12-31T21:38:38.176Z,25
2022-12-31T21:40:42.567Z,24.97
2022-12-31T21:42:47.033Z,24.99
2022-12-31T21:44:51.500Z,24.94
2022-12-31T21:47:33.074Z,24.97
2022-12-31T21:49:50.174Z,24.99
2022-12-31T21:51:54.716Z,25
2022-12-31T21:53:59.146Z,24.98
2022-12-31T21:56:03.628Z,24.98
2022-12-31T22:00:43.364Z,24.97
2022-12-31T22:02:58.827Z,24.96
2022-12-31T22:05:10.439Z,24.99
2022-12-31T22:07:28.309Z,24.99
2022-12-31T22:09:32.732Z,24.98
2022-12-31T22:11:37.121Z,24.96
2022-12-31T22:13:41.557Z,25
2022-12-31T22:15:46.021Z,24.96
2022-12-31T22:17:50.771Z,24.96
2022-12-31T22:22:31.956Z,24.97
2022-12-31T22:24:36.396Z,24.98
2022-12-31T22:26:46.398Z,25
2022-12-31T22:28:51.140Z,25
2022-12-31T22:30:55.696Z,25.01
2022-12-31T22:33:00.263Z,25.04
2022-12-31T22:35:04.842Z,25.04
2022-12-31T22:37:35.573Z,25.02
2022-12-31T22:40:08.998Z,25.03
2022-12-31T22:42:13.461Z,25.04
2022-12-31T22:44:17.830Z,25.04
2022-12-31T22:46:22.289Z,25.04
2022-12-31T22:48:26.888Z,25.04
2022-12-31T22:50:31.316Z,25.08
2022-12-31T22:52:35.814Z,25.13
2022-12-31T22:54:40.272Z,25.17
2022-12-31T22:56:44.689Z,25.33
2022-12-31T22:58:49.133Z,25.34
2022-12-31T23:00:53.586Z,25.41
2022-12-31T23:02:58.078Z,25.37
2022-12-31T23:05:14.994Z,25.32
2022-12-31T23:07:20.530Z,25.24
2022-12-31T23:09:25.033Z,25.14
2022-12-31T23:11:29.425Z,25.09
2022-12-31T23:13:33.842Z,25.07
2022-12-31T23:15:38.269Z,25.1
2022-12-31T23:17:42.686Z,25.07
2022-12-31T23:19:47.218Z,25.02
2022-12-31T23:21:51.595Z,24.93
2022-12-31T23:23:55.959Z,24.9
2022-12-31T23:26:00.421Z,24.9
2022-12-31T23:28:04.911Z,24.9
2022-12-31T23:30:09.442Z,24.91
2022-12-31T23:32:13.843Z,24.92
2022-12-31T23:34:18.348Z,24.95
2022-12-31T23:38:27.977Z,24.97
2022-12-31T23:40:32.392Z,24.99
2022-12-31T23:42:37.069Z,24.96
2022-12-31T23:44:41.552Z,25
2022-12-31T23:48:47.581Z,25.13
2022-12-31T23:50:54.233Z,25.2
2022-12-31T23:52:58.848Z,25.26
2022-12-31T23:55:03.309Z,25.29
2022-12-31T23:57:07.799Z,25.32
2022-12-31T23:59:12.183Z,25.34
